createdAt,value
2023-03-14T00:01:23.637Z,0.43
2023-03-14T00:04:11.088Z,0.60
2023-03-14T00:06:59.089Z,0.60
2023-03-14T00:09:46.514Z,0.53
2023-03-14T00:12:34.516Z,0.50
2023-03-14T00:15:22.555Z,0.50
2023-03-14T00:18:10.086Z,0.70
2023-03-14T00:20:59.862Z,0.60
2023-03-14T00:23:47.884Z,0.70
2023-03-14T00:26:35.875Z,0.40
2023-03-14T00:29:23.829Z,0.60
2023-03-14T00:32:11.303Z,0.60
2023-03-14T00:34:59.227Z,0.50
2023-03-14T00:37:46.745Z,0.50
2023-03-14T00:40:34.721Z,0.53
2023-03-14T00:43:22.785Z,0.50
2023-03-14T00:46:10.670Z,0.50
2023-03-14T00:48:58.106Z,0.60
2023-03-14T00:51:46.019Z,0.60
2023-03-14T00:54:33.602Z,0.60
2023-03-14T00:57:21.048Z,0.70
2023-03-14T01:00:12.664Z,0.60
2023-03-14T01:03:00.293Z,0.70
2023-03-14T01:05:48.195Z,0.57
2023-03-14T01:08:36.169Z,0.50
2023-03-14T01:11:33.773Z,0.60
2023-03-14T01:14:21.714Z,0.60
2023-03-14T01:17:09.120Z,0.40
2023-03-14T01:19:57.202Z,0.63
2023-03-14T01:22:45.153Z,0.60
2023-03-14T01:25:33.138Z,0.50
2023-03-14T01:28:20.616Z,0.50
2023-03-14T01:31:09.613Z,0.40
2023-03-14T01:33:57.290Z,0.50
2023-03-14T01:36:45.320Z,0.50
2023-03-14T01:39:32.771Z,0.40
2023-03-14T01:42:20.787Z,0.70
2023-03-14T01:45:28.378Z,0.60
2023-03-14T01:48:16.497Z,0.60
2023-03-14T01:51:04.388Z,0.63
2023-03-14T01:53:53.304Z,0.57
2023-03-14T01:56:41.901Z,0.50
2023-03-14T01:59:31.413Z,0.70
2023-03-14T02:02:19.448Z,0.70
2023-03-14T02:05:07.828Z,0.70
2023-03-14T02:07:57.048Z,0.67
2023-03-14T02:10:46.223Z,0.60
2023-03-14T02:13:34.212Z,0.60
2023-03-14T02:16:22.257Z,0.50
2023-03-14T02:19:10.329Z,0.50
2023-03-14T02:22:04.230Z,0.80
2023-03-14T02:24:57.875Z,0.60
2023-03-14T02:27:46.068Z,0.43
2023-03-14T02:30:34.637Z,0.70
2023-03-14T02:33:22.879Z,0.50
2023-03-14T02:36:13.096Z,0.50
2023-03-14T02:39:16.386Z,0.40
2023-03-14T02:42:03.892Z,0.80
2023-03-14T02:44:53.326Z,0.60
2023-03-14T02:48:10.873Z,0.43
2023-03-14T02:50:59.451Z,0.57
2023-03-14T02:53:47.529Z,0.60
2023-03-14T02:56:35.001Z,0.40
2023-03-14T02:59:22.545Z,0.40
2023-03-14T03:02:10.485Z,0.43
2023-03-14T03:04:58.455Z,0.50
2023-03-14T03:07:45.923Z,0.50
2023-03-14T03:10:34.452Z,0.40
2023-03-14T03:13:21.942Z,0.50
2023-03-14T03:16:10.093Z,0.50
2023-03-14T03:18:58.100Z,0.60
2023-03-14T03:21:46.429Z,0.40
2023-03-14T03:24:33.946Z,0.50
2023-03-14T03:27:21.855Z,0.40
2023-03-14T03:30:10.643Z,0.40
2023-03-14T03:32:57.900Z,0.40
2023-03-14T03:35:49.706Z,0.50
2023-03-14T03:38:37.229Z,0.43
2023-03-14T03:41:25.171Z,0.50
2023-03-14T03:44:13.668Z,0.30
2023-03-14T03:47:01.634Z,0.40
2023-03-14T03:49:49.621Z,0.40
2023-03-14T03:52:37.173Z,0.40
2023-03-14T03:55:25.195Z,0.47
2023-03-14T03:58:12.941Z,0.40
2023-03-14T04:01:00.433Z,0.40
2023-03-14T04:03:47.858Z,0.40
2023-03-14T04:06:35.511Z,0.40
2023-03-14T04:09:23.022Z,0.40
2023-03-14T04:12:12.017Z,0.50
2023-03-14T04:14:59.936Z,0.40
2023-03-14T04:17:47.395Z,0.40
2023-03-14T04:20:36.088Z,0.50
2023-03-14T04:23:28.165Z,0.40
2023-03-14T04:26:16.189Z,0.40
2023-03-14T04:29:03.651Z,0.40
2023-03-14T04:31:51.553Z,0.40
2023-03-14T04:34:39.066Z,0.30
2023-03-14T04:37:27.045Z,0.43
2023-03-14T04:40:16.334Z,0.47
2023-03-14T04:43:05.397Z,0.43
2023-03-14T04:45:52.665Z,0.53
2023-03-14T04:48:40.626Z,0.43
2023-03-14T04:51:28.382Z,0.40
2023-03-14T04:54:16.319Z,0.40
2023-03-14T04:57:03.797Z,0.40
2023-03-14T04:59:51.702Z,0.30
2023-03-14T05:02:39.416Z,0.30
2023-03-14T05:05:27.540Z,0.40
2023-03-14T05:08:15.022Z,0.40
2023-03-14T05:11:04.301Z,0.40
2023-03-14T05:13:51.758Z,0.40
2023-03-14T05:16:39.771Z,0.40
2023-03-14T05:19:27.724Z,0.40
2023-03-14T05:22:14.983Z,0.40
2023-03-14T05:25:03.148Z,0.30
2023-03-14T05:27:50.570Z,0.40
2023-03-14T05:30:38.481Z,0.47
2023-03-14T05:33:25.996Z,0.50
2023-03-14T05:36:13.697Z,0.50
2023-03-14T05:39:01.109Z,0.60
2023-03-14T05:41:48.564Z,0.40
2023-03-14T05:44:36.018Z,0.43
2023-03-14T05:47:24.036Z,0.50
2023-03-14T05:50:11.958Z,0.50
2023-03-14T05:52:59.865Z,0.50
2023-03-14T05:55:47.279Z,0.40
2023-03-14T05:58:35.186Z,0.50
2023-03-14T06:01:22.669Z,0.40
2023-03-14T06:04:10.716Z,0.43
2023-03-14T06:06:58.167Z,0.50
2023-03-14T06:09:46.101Z,0.50
2023-03-14T06:12:33.560Z,0.70
2023-03-14T06:15:21.078Z,0.50
2023-03-14T06:18:08.681Z,0.40
2023-03-14T06:20:57.120Z,0.50
2023-03-14T06:23:44.552Z,0.40
2023-03-14T06:26:32.550Z,0.60
2023-03-14T06:29:20.001Z,0.60
2023-03-14T06:32:08.090Z,0.60
2023-03-14T06:34:55.651Z,0.60
2023-03-14T06:37:43.374Z,0.60
2023-03-14T06:40:31.597Z,0.90
2023-03-14T06:43:19.540Z,0.70
2023-03-14T06:46:07.023Z,0.70
2023-03-14T06:48:55.168Z,0.80
2023-03-14T06:51:42.589Z,1.00
2023-03-14T06:54:30.053Z,0.60
2023-03-14T06:57:17.977Z,0.60
2023-03-14T07:00:05.832Z,0.63
2023-03-14T07:02:53.234Z,0.60
2023-03-14T07:05:41.987Z,0.50
2023-03-14T07:08:29.232Z,0.50
2023-03-14T07:11:16.679Z,0.90
2023-03-14T07:14:04.264Z,0.80
2023-03-14T07:16:51.737Z,0.50
2023-03-14T07:19:39.280Z,0.60
2023-03-14T07:22:26.732Z,0.50
2023-03-14T07:25:14.269Z,0.50
2023-03-14T07:28:01.696Z,0.53
2023-03-14T07:30:49.241Z,0.60
2023-03-14T07:33:37.452Z,0.60
2023-03-14T07:36:25.017Z,0.63
2023-03-14T07:39:12.889Z,0.60
2023-03-14T07:42:00.437Z,0.50
2023-03-14T07:44:47.951Z,0.57
2023-03-14T07:47:35.967Z,0.57
2023-03-14T07:50:23.851Z,0.50
2023-03-14T07:53:11.256Z,0.60
2023-03-14T07:55:58.739Z,0.80
2023-03-14T07:58:46.428Z,0.77
2023-03-14T08:01:33.830Z,0.67
2023-03-14T08:04:21.717Z,0.63
2023-03-14T08:07:09.186Z,0.60
2023-03-14T08:09:57.071Z,0.43
2023-03-14T08:12:44.458Z,0.80
2023-03-14T08:15:32.760Z,0.70
2023-03-14T08:18:20.130Z,0.60
2023-03-14T08:21:08.016Z,0.60
2023-03-14T08:23:55.396Z,0.60
2023-03-14T08:26:42.693Z,0.70
2023-03-14T08:29:30.093Z,0.40
2023-03-14T08:32:18.041Z,0.50
2023-03-14T08:35:06.349Z,0.50
2023-03-14T08:37:54.058Z,0.50
2023-03-14T08:40:41.248Z,0.57
2023-03-14T08:43:29.776Z,0.60
2023-03-14T08:46:17.263Z,0.50
2023-03-14T08:49:05.232Z,0.50
2023-03-14T08:51:52.617Z,0.60
2023-03-14T08:54:40.517Z,0.80
2023-03-14T08:57:28.990Z,0.97
2023-03-14T09:00:16.688Z,0.90
2023-03-14T09:03:04.145Z,0.60
2023-03-14T09:05:52.071Z,0.63
2023-03-14T09:08:40.043Z,0.83
2023-03-14T09:11:27.411Z,0.70
2023-03-14T09:14:15.334Z,0.60
2023-03-14T09:17:02.546Z,0.70
2023-03-14T09:19:50.433Z,0.60
2023-03-14T09:22:38.594Z,0.50
2023-03-14T09:25:25.978Z,0.70
2023-03-14T09:28:14.020Z,0.50
2023-03-14T09:31:09.101Z,0.70
2023-03-14T09:33:57.098Z,0.60
2023-03-14T09:36:45.287Z,0.70
2023-03-14T09:39:33.244Z,0.50
2023-03-14T09:42:23.326Z,1.00
2023-03-14T09:45:16.554Z,0.93
2023-03-14T09:48:05.136Z,0.60
2023-03-14T09:50:57.294Z,0.70
2023-03-14T09:53:46.835Z,0.93
2023-03-14T09:56:34.952Z,0.60
2023-03-14T09:59:22.243Z,0.77
2023-03-14T10:02:16.018Z,0.60
2023-03-14T10:05:07.758Z,0.60
2023-03-14T10:07:55.770Z,0.60
2023-03-14T10:10:43.719Z,0.67
2023-03-14T10:13:31.156Z,0.80
2023-03-14T10:16:18.558Z,0.73
2023-03-14T10:19:11.856Z,0.70
2023-03-14T10:22:02.234Z,0.77
2023-03-14T10:24:54.402Z,0.60
2023-03-14T10:27:41.815Z,0.50
2023-03-14T10:30:36.625Z,0.55
2023-03-14T10:33:26.146Z,0.50
2023-03-14T10:36:21.556Z,0.60
2023-03-14T10:39:24.751Z,1.25
2023-03-14T10:42:23.437Z,0.70
2023-03-14T10:45:30.013Z,0.60
2023-03-14T10:48:24.729Z,2.47
2023-03-14T10:51:11.971Z,0.82
2023-03-14T10:54:13.894Z,0.80
2023-03-14T10:57:02.032Z,0.90
2023-03-14T10:59:49.498Z,4.35
2023-03-14T11:02:37.374Z,1.15
2023-03-14T11:05:25.106Z,3.35
2023-03-14T11:08:31.807Z,2.38
2023-03-14T11:11:22.806Z,1.02
2023-03-14T11:14:16.851Z,2.05
2023-03-14T11:17:12.392Z,1.30
2023-03-14T11:20:10.295Z,0.60
2023-03-14T11:22:58.804Z,0.68
2023-03-14T11:25:55.030Z,0.63
2023-03-14T11:28:48.542Z,0.93
2023-03-14T11:31:37.104Z,0.32
2023-03-14T11:34:33.097Z,0.60
2023-03-14T11:37:29.286Z,0.70
2023-03-14T11:40:22.045Z,0.40
2023-03-14T11:43:29.321Z,0.40
2023-03-14T11:46:23.869Z,0.50
2023-03-14T11:49:30.008Z,0.70
2023-03-14T11:52:21.091Z,0.70
2023-03-14T11:55:19.348Z,0.60
2023-03-14T11:58:25.765Z,0.52
2023-03-14T12:01:15.650Z,0.70
2023-03-14T12:04:08.120Z,0.32
2023-03-14T12:06:57.347Z,0.40
2023-03-14T12:09:45.437Z,0.40
2023-03-14T12:12:33.653Z,0.50
2023-03-14T12:15:22.809Z,0.55
2023-03-14T12:18:21.681Z,0.53
2023-03-14T12:21:11.949Z,0.63
2023-03-14T12:23:59.500Z,0.33
2023-03-14T12:27:00.980Z,0.37
2023-03-14T12:30:03.746Z,0.35
2023-03-14T12:33:11.193Z,0.30
2023-03-14T12:36:00.837Z,0.37
2023-03-14T12:38:50.964Z,0.40
2023-03-14T12:41:45.006Z,0.30
2023-03-14T12:44:32.388Z,0.30
2023-03-14T12:47:20.081Z,0.30
2023-03-14T12:50:16.207Z,0.40
2023-03-14T12:53:20.407Z,0.30
2023-03-14T12:56:26.403Z,0.40
2023-03-14T12:59:13.913Z,0.30
2023-03-14T13:02:03.892Z,0.57
2023-03-14T13:04:54.633Z,0.30
2023-03-14T13:07:47.899Z,0.40
2023-03-14T13:10:44.156Z,0.50
2023-03-14T13:13:32.155Z,0.40
2023-03-14T13:16:23.280Z,0.60
2023-03-14T13:19:15.724Z,0.43
2023-03-14T13:22:04.462Z,0.40
2023-03-14T13:24:51.653Z,0.30
2023-03-14T13:27:39.842Z,1.03
2023-03-14T13:30:29.011Z,0.40
2023-03-14T13:33:21.679Z,0.50
2023-03-14T13:36:12.210Z,0.40
2023-03-14T13:39:00.734Z,0.40
2023-03-14T13:41:50.158Z,0.63
2023-03-14T13:44:38.808Z,0.40
2023-03-14T13:47:28.139Z,0.30
2023-03-14T13:50:17.217Z,0.50
2023-03-14T13:53:04.951Z,0.40
2023-03-14T13:55:53.185Z,0.50
2023-03-14T13:58:42.265Z,0.40
2023-03-14T14:01:32.714Z,0.50
2023-03-14T14:04:23.119Z,0.50
2023-03-14T14:07:19.739Z,0.53
2023-03-14T14:10:07.715Z,0.50
2023-03-14T14:12:59.747Z,0.40
2023-03-14T14:15:50.432Z,0.50
2023-03-14T14:18:38.060Z,0.40
2023-03-14T14:21:26.331Z,0.40
2023-03-14T14:24:15.440Z,0.40
2023-03-14T14:27:11.104Z,0.47
2023-03-14T14:30:02.750Z,0.40
2023-03-14T14:32:52.261Z,0.30
2023-03-14T14:35:39.826Z,0.40
2023-03-14T14:38:27.788Z,0.30
2023-03-14T14:41:15.588Z,0.37
2023-03-14T14:44:04.820Z,0.40
2023-03-14T14:46:52.589Z,0.60
2023-03-14T14:49:40.051Z,0.40
2023-03-14T14:52:43.331Z,0.50
2023-03-14T14:55:35.401Z,0.50
2023-03-14T14:58:30.855Z,0.57
2023-03-14T15:01:19.981Z,0.37
2023-03-14T15:04:13.492Z,0.40
2023-03-14T15:07:00.748Z,0.40
2023-03-14T15:09:48.644Z,0.40
2023-03-14T15:12:36.033Z,0.50
2023-03-14T15:15:23.531Z,0.40
2023-03-14T15:18:19.024Z,0.50
2023-03-14T15:21:06.561Z,0.50
2023-03-14T15:23:54.080Z,0.57
2023-03-14T15:26:41.550Z,0.53
2023-03-14T15:29:30.243Z,0.50
2023-03-14T15:32:19.148Z,0.50
2023-03-14T15:35:06.708Z,0.50
2023-03-14T15:37:55.564Z,0.60
2023-03-14T15:40:43.400Z,0.50
2023-03-14T15:43:31.267Z,0.60
2023-03-14T15:46:18.941Z,0.80
2023-03-14T15:49:06.842Z,0.80
2023-03-14T15:51:56.161Z,0.80
2023-03-14T15:54:45.450Z,0.80
2023-03-14T15:57:32.805Z,0.70
2023-03-14T16:00:25.324Z,0.70
2023-03-14T16:03:13.240Z,0.80
2023-03-14T16:06:00.688Z,0.77
2023-03-14T16:08:48.264Z,0.80
2023-03-14T16:11:36.478Z,1.00
2023-03-14T16:14:24.569Z,0.80
2023-03-14T16:17:12.614Z,0.60
2023-03-14T16:20:00.454Z,0.80
2023-03-14T16:22:48.549Z,0.80
2023-03-14T16:25:35.927Z,0.70
2023-03-14T16:28:24.194Z,0.57
2023-03-14T16:31:12.562Z,0.73
2023-03-14T16:34:03.970Z,0.70
2023-03-14T16:36:52.159Z,0.70
2023-03-14T16:40:01.193Z,0.63
2023-03-14T16:43:11.602Z,0.80
2023-03-14T16:45:54.735Z,0.60
2023-03-14T16:48:42.705Z,0.83
2023-03-14T16:51:30.631Z,0.77
2023-03-14T16:54:17.855Z,0.70
2023-03-14T16:57:05.268Z,0.90
2023-03-14T16:59:52.709Z,0.97
2023-03-14T17:02:40.087Z,1.00
2023-03-14T17:05:28.083Z,0.87
2023-03-14T17:08:16.691Z,0.83
2023-03-14T17:11:04.158Z,0.90
2023-03-14T17:13:51.647Z,0.80
2023-03-14T17:16:39.098Z,0.80
2023-03-14T17:19:26.515Z,0.97
2023-03-14T17:22:23.265Z,0.87
2023-03-14T17:25:12.097Z,0.80
2023-03-14T17:27:59.272Z,0.77
2023-03-14T17:30:47.503Z,0.80
2023-03-14T17:33:35.291Z,0.93
2023-03-14T17:36:26.414Z,0.93
2023-03-14T17:39:14.562Z,0.93
2023-03-14T17:42:01.987Z,1.00
2023-03-14T17:44:51.098Z,0.87
2023-03-14T17:47:38.571Z,1.03
2023-03-14T17:50:26.459Z,0.97
2023-03-14T17:53:14.404Z,0.90
2023-03-14T17:56:01.956Z,1.10
2023-03-14T17:58:50.010Z,1.33
2023-03-14T18:01:37.812Z,0.90
2023-03-14T18:04:25.675Z,0.60
2023-03-14T18:07:13.770Z,1.00
2023-03-14T18:10:01.638Z,1.20
2023-03-14T18:12:50.889Z,0.83
2023-03-14T18:15:38.806Z,1.00
2023-03-14T18:18:26.181Z,0.90
2023-03-14T18:21:14.202Z,0.97
2023-03-14T18:24:03.469Z,0.80
2023-03-14T18:26:51.466Z,0.90
2023-03-14T18:29:39.080Z,1.00
2023-03-14T18:32:27.019Z,1.13
2023-03-14T18:35:14.595Z,1.27
2023-03-14T18:38:02.071Z,1.63
2023-03-14T18:40:49.483Z,1.40
2023-03-14T18:43:37.457Z,1.40
2023-03-14T18:46:24.809Z,1.43
2023-03-14T18:49:13.963Z,1.30
2023-03-14T18:52:01.337Z,1.00
2023-03-14T18:54:48.746Z,1.50
2023-03-14T18:57:36.173Z,0.80
2023-03-14T19:00:27.026Z,1.20
2023-03-14T19:03:14.285Z,1.27
2023-03-14T19:06:02.461Z,1.30
2023-03-14T19:08:50.363Z,1.10
2023-03-14T19:11:37.772Z,1.10
2023-03-14T19:14:25.152Z,1.23
2023-03-14T19:17:12.920Z,1.40
2023-03-14T19:20:00.227Z,1.20
2023-03-14T19:22:49.228Z,1.10
2023-03-14T19:25:36.612Z,1.00
2023-03-14T19:28:25.070Z,1.73
2023-03-14T19:31:12.563Z,1.27
2023-03-14T19:34:00.044Z,1.33
2023-03-14T19:36:47.661Z,1.13
2023-03-14T19:39:35.138Z,1.40
2023-03-14T19:42:22.633Z,1.20
2023-03-14T19:45:10.926Z,1.67
2023-03-14T19:48:02.261Z,1.50
2023-03-14T19:50:49.750Z,1.33
2023-03-14T19:53:37.069Z,1.20
2023-03-14T19:56:25.396Z,1.83
2023-03-14T19:59:12.828Z,1.90
2023-03-14T20:02:00.315Z,1.37
2023-03-14T20:04:47.672Z,1.03
2023-03-14T20:07:35.584Z,1.40
2023-03-14T20:10:23.204Z,1.30
2023-03-14T20:13:20.835Z,1.23
2023-03-14T20:16:12.439Z,1.40
2023-03-14T20:18:59.974Z,1.57
2023-03-14T20:21:47.351Z,1.20
2023-03-14T20:24:34.962Z,1.33
2023-03-14T20:27:22.758Z,1.30
2023-03-14T20:30:12.960Z,1.40
2023-03-14T20:33:04.565Z,1.27
2023-03-14T20:35:55.985Z,1.00
2023-03-14T20:38:43.500Z,1.37
2023-03-14T20:41:30.969Z,1.30
2023-03-14T20:44:18.813Z,1.30
2023-03-14T20:47:06.250Z,1.30
2023-03-14T20:49:54.003Z,1.03
2023-03-14T20:52:41.955Z,1.30
2023-03-14T20:55:29.885Z,1.40
2023-03-14T20:58:17.354Z,1.20
2023-03-14T21:01:06.417Z,1.20
2023-03-14T21:03:53.955Z,1.10
2023-03-14T21:06:42.507Z,1.30
2023-03-14T21:09:30.006Z,1.43
2023-03-14T21:12:17.462Z,1.20
2023-03-14T21:15:06.157Z,1.23
2023-03-14T21:17:54.179Z,1.23
2023-03-14T21:20:42.486Z,1.10
2023-03-14T21:23:30.062Z,1.10
2023-03-14T21:26:17.456Z,1.10
2023-03-14T21:29:04.890Z,1.13
2023-03-14T21:31:52.954Z,1.20
2023-03-14T21:34:40.552Z,1.30
2023-03-14T21:37:28.220Z,1.17
2023-03-14T21:40:15.980Z,1.40
2023-03-14T21:43:03.490Z,1.10
2023-03-14T21:45:51.533Z,1.10
2023-03-14T21:48:39.081Z,1.00
2023-03-14T21:51:30.409Z,1.20
2023-03-14T21:54:17.865Z,1.00
2023-03-14T21:57:06.679Z,1.00
2023-03-14T21:59:54.216Z,1.37
2023-03-14T22:02:44.045Z,1.27
2023-03-14T22:05:34.819Z,0.90
2023-03-14T22:08:22.682Z,1.00
2023-03-14T22:11:10.840Z,1.20
2023-03-14T22:13:58.276Z,1.10
2023-03-14T22:16:45.970Z,1.33
2023-03-14T22:19:33.867Z,1.23
2023-03-14T22:22:21.799Z,1.13
2023-03-14T22:25:09.272Z,1.30
2023-03-14T22:27:57.204Z,1.33
2023-03-14T22:30:48.285Z,1.40
2023-03-14T22:33:35.728Z,1.27
2023-03-14T22:36:23.225Z,1.30
2023-03-14T22:39:11.115Z,1.30
2023-03-14T22:41:59.685Z,1.10
2023-03-14T22:44:47.247Z,1.43
2023-03-14T22:47:35.137Z,1.17
2023-03-14T22:50:23.043Z,1.17
2023-03-14T22:53:10.244Z,1.53
2023-03-14T22:56:01.703Z,1.00
2023-03-14T22:58:49.187Z,1.00
2023-03-14T23:01:36.628Z,1.10
2023-03-14T23:04:24.116Z,0.97
2023-03-14T23:07:11.477Z,1.30
2023-03-14T23:09:59.383Z,1.10
2023-03-14T23:12:46.945Z,1.30
2023-03-14T23:15:34.881Z,1.50
2023-03-14T23:18:22.301Z,1.20
2023-03-14T23:21:14.872Z,1.10
2023-03-14T23:24:05.681Z,1.10
2023-03-14T23:26:54.625Z,1.30
2023-03-14T23:29:42.234Z,1.23
2023-03-14T23:32:30.320Z,0.90
2023-03-14T23:35:17.711Z,1.17
2023-03-14T23:38:05.390Z,1.00
2023-03-14T23:40:53.488Z,1.10
2023-03-14T23:43:45.720Z,1.13
2023-03-14T23:46:33.136Z,1.00
2023-03-14T23:49:21.222Z,1.00
2023-03-14T23:52:09.070Z,1.13
2023-03-14T23:54:56.957Z,1.27
2023-03-14T23:57:44.343Z,0.87
